createdAt,value
2022-10-08T00:00:00.526Z,40.4
2022-10-08T00:01:00.377Z,40.6
2022-10-08T00:02:00.462Z,40.3
2022-10-08T00:03:00.564Z,40.2
2022-10-08T00:04:00.579Z,40.3
2022-10-08T00:05:00.644Z,40.1
2022-10-08T00:06:00.382Z,40.2
2022-10-08T00:07:00.521Z,39.8
2022-10-08T00:08:00.314Z,39.8
2022-10-08T00:09:00.308Z,39.7
2022-10-08T00:10:00.313Z,39.6
2022-10-08T00:11:00.570Z,39.7
2022-10-08T00:12:00.439Z,39.6
2022-10-08T00:13:00.414Z,39.7
2022-10-08T00:14:00.430Z,39.7
2022-10-08T00:15:00.479Z,39.6
2022-10-08T00:16:00.441Z,39.6
2022-10-08T00:17:00.739Z,39.5
2022-10-08T00:18:00.492Z,39.3
2022-10-08T00:19:00.384Z,39.2
2022-10-08T00:20:00.298Z,39.4
2022-10-08T00:21:00.327Z,39.2
2022-10-08T00:22:00.323Z,39.3
2022-10-08T00:23:00.529Z,39.2
2022-10-08T00:24:00.365Z,39.3
2022-10-08T00:25:00.311Z,39.2
2022-10-08T00:26:00.319Z,39.3
2022-10-08T00:27:00.347Z,39.2
2022-10-08T00:28:00.351Z,39.1
2022-10-08T00:29:00.562Z,39.0
2022-10-08T00:30:00.343Z,39.2
2022-10-08T00:31:00.499Z,39.3
2022-10-08T00:32:00.423Z,39.5
2022-10-08T00:33:00.483Z,39.6
2022-10-08T00:34:00.289Z,39.6
2022-10-08T00:35:00.523Z,39.6
2022-10-08T00:36:00.360Z,39.7
2022-10-08T00:37:00.383Z,39.9
2022-10-08T00:38:00.335Z,39.7
2022-10-08T00:39:00.294Z,39.4
2022-10-08T00:40:00.295Z,39.3
2022-10-08T00:41:00.469Z,39.2
2022-10-08T00:42:00.319Z,39.2
2022-10-08T00:43:00.359Z,39.3
2022-10-08T00:44:00.303Z,39.5
2022-10-08T00:45:00.334Z,39.6
2022-10-08T00:46:00.398Z,39.9
2022-10-08T00:47:00.457Z,39.9
2022-10-08T00:48:00.522Z,39.9
2022-10-08T00:49:00.589Z,40.7
2022-10-08T00:50:00.719Z,40.4
2022-10-08T00:51:00.283Z,40.2
2022-10-08T00:52:00.311Z,40.1
2022-10-08T00:53:00.462Z,40.1
2022-10-08T00:54:00.285Z,40.4
2022-10-08T00:55:00.294Z,40.3
2022-10-08T00:56:00.312Z,40.2
2022-10-08T00:57:00.297Z,40.2
2022-10-08T00:58:00.285Z,40.3
2022-10-08T00:59:00.430Z,40.5
2022-10-08T01:00:00.295Z,40.7
2022-10-08T01:01:00.396Z,40.6
2022-10-08T01:02:00.349Z,40.6
2022-10-08T01:03:00.313Z,40.5
2022-10-08T01:04:00.457Z,40.6
2022-10-08T01:05:00.434Z,40.6
2022-10-08T01:06:00.300Z,40.6
2022-10-08T01:07:00.343Z,40.7
2022-10-08T01:08:00.343Z,40.7
2022-10-08T01:09:00.347Z,41.0
2022-10-08T01:10:00.329Z,41.4
2022-10-08T01:11:00.460Z,41.2
2022-10-08T01:12:00.360Z,41.6
2022-10-08T01:13:00.302Z,41.3
2022-10-08T01:14:00.276Z,41.3
2022-10-08T01:15:00.304Z,41.3
2022-10-08T01:16:00.397Z,41.4
2022-10-08T01:17:00.518Z,41.6
2022-10-08T01:18:00.329Z,41.8
2022-10-08T01:19:00.297Z,42.1
2022-10-08T01:20:00.500Z,42.2
2022-10-08T01:21:00.314Z,42.3
2022-10-08T01:22:00.287Z,42.3
2022-10-08T01:23:00.490Z,42.4
2022-10-08T01:24:00.295Z,42.4
2022-10-08T01:25:00.288Z,42.4
2022-10-08T01:26:00.285Z,42.5
2022-10-08T01:27:00.299Z,42.6
2022-10-08T01:28:00.372Z,42.6
2022-10-08T01:29:00.465Z,42.6
2022-10-08T01:30:00.308Z,42.6
2022-10-08T01:31:00.302Z,42.7
2022-10-08T01:32:00.364Z,42.7
2022-10-08T01:33:00.322Z,42.8
2022-10-08T01:34:00.351Z,42.8
2022-10-08T01:35:00.532Z,42.9
2022-10-08T01:36:00.316Z,43.0
2022-10-08T01:37:00.293Z,43.0
2022-10-08T01:38:00.302Z,43.1
2022-10-08T01:39:00.289Z,43.0
2022-10-08T01:40:00.284Z,43.0
2022-10-08T01:41:00.459Z,43.0
2022-10-08T01:42:00.291Z,42.9
2022-10-08T01:43:00.311Z,43.0
2022-10-08T01:44:00.299Z,43.0
2022-10-08T01:45:00.315Z,43.0
2022-10-08T01:46:00.393Z,43.0
2022-10-08T01:47:00.450Z,43.0
2022-10-08T01:48:00.338Z,43.0
2022-10-08T01:49:00.502Z,43.0
2022-10-08T01:50:00.500Z,43.0
2022-10-08T01:51:00.302Z,43.0
2022-10-08T01:52:00.377Z,43.0
2022-10-08T01:53:00.501Z,42.9
2022-10-08T01:54:00.345Z,43.0
2022-10-08T01:55:00.327Z,43.0
2022-10-08T01:56:00.316Z,43.0
2022-10-08T01:57:00.300Z,43.0
2022-10-08T01:58:00.294Z,42.9
2022-10-08T01:59:00.432Z,43.0
2022-10-08T02:00:00.333Z,43.1
2022-10-08T02:01:00.347Z,43.1
2022-10-08T02:02:00.471Z,43.3
2022-10-08T02:03:00.331Z,43.3
2022-10-08T02:04:00.345Z,43.4
2022-10-08T02:05:00.427Z,43.4
2022-10-08T02:06:00.294Z,43.4
2022-10-08T02:07:00.322Z,43.4
2022-10-08T02:08:00.281Z,43.4
2022-10-08T02:09:00.295Z,43.4
2022-10-08T02:10:00.279Z,43.5
2022-10-08T02:11:00.564Z,43.5
2022-10-08T02:12:00.302Z,43.4
2022-10-08T02:13:00.292Z,43.4
2022-10-08T02:14:00.301Z,43.2
2022-10-08T02:15:00.349Z,43.1
2022-10-08T02:16:00.290Z,43.1
2022-10-08T02:17:00.405Z,43.2
2022-10-08T02:18:00.294Z,43.3
2022-10-08T02:19:00.307Z,43.3
2022-10-08T02:20:00.443Z,43.4
2022-10-08T02:21:00.306Z,43.4
2022-10-08T02:22:00.286Z,43.4
2022-10-08T02:23:00.396Z,43.2
2022-10-08T02:24:00.300Z,43.3
2022-10-08T02:25:00.292Z,43.3
2022-10-08T02:26:00.309Z,43.3
2022-10-08T02:27:00.301Z,43.2
2022-10-08T02:28:00.316Z,43.2
2022-10-08T02:29:00.410Z,43.1
2022-10-08T02:30:00.297Z,43.2
2022-10-08T02:31:00.290Z,43.3
2022-10-08T02:32:00.393Z,43.3
2022-10-08T02:33:00.313Z,43.4
2022-10-08T02:34:00.309Z,43.4
2022-10-08T02:35:00.428Z,43.4
2022-10-08T02:36:00.300Z,43.3
2022-10-08T02:37:00.304Z,43.4
2022-10-08T02:38:00.299Z,43.3
2022-10-08T02:39:00.291Z,43.3
2022-10-08T02:40:00.302Z,43.4
2022-10-08T02:41:00.477Z,43.4
2022-10-08T02:42:00.376Z,43.6
2022-10-08T02:43:00.293Z,43.7
2022-10-08T02:44:00.349Z,43.8
2022-10-08T02:45:00.362Z,43.8
2022-10-08T02:46:00.401Z,43.8
2022-10-08T02:47:00.496Z,43.7
2022-10-08T02:48:00.358Z,43.7
2022-10-08T02:49:00.318Z,43.7
2022-10-08T02:50:00.481Z,43.7
2022-10-08T02:51:00.386Z,43.6
2022-10-08T02:52:00.347Z,43.6
2022-10-08T02:53:00.419Z,43.7
2022-10-08T02:54:00.295Z,43.6
2022-10-08T02:55:00.294Z,43.6
2022-10-08T02:56:00.299Z,43.6
2022-10-08T02:57:00.307Z,43.6
2022-10-08T02:58:00.310Z,43.7
2022-10-08T02:59:00.502Z,43.6
2022-10-08T03:00:00.312Z,43.4
2022-10-08T03:01:00.347Z,43.4
2022-10-08T03:02:00.385Z,43.5
2022-10-08T03:03:00.323Z,43.3
2022-10-08T03:04:00.297Z,43.4
2022-10-08T03:05:00.433Z,43.4
2022-10-08T03:06:00.368Z,43.5
2022-10-08T03:07:00.310Z,43.3
2022-10-08T03:08:00.278Z,43.3
2022-10-08T03:09:00.312Z,43.5
2022-10-08T03:10:00.284Z,43.3
2022-10-08T03:11:00.439Z,43.3
2022-10-08T03:12:00.309Z,43.3
2022-10-08T03:13:00.296Z,43.2
2022-10-08T03:14:00.305Z,43.2
2022-10-08T03:15:00.280Z,43.3
2022-10-08T03:16:00.299Z,43.4
2022-10-08T03:17:00.524Z,43.3
2022-10-08T03:18:00.339Z,43.3
2022-10-08T03:19:00.301Z,43.3
2022-10-08T03:20:00.463Z,43.3
2022-10-08T03:21:00.294Z,43.4
2022-10-08T03:22:00.319Z,43.5
2022-10-08T03:23:00.414Z,43.3
2022-10-08T03:24:00.305Z,43.2
2022-10-08T03:25:00.309Z,43.2
2022-10-08T03:26:00.308Z,43.2
2022-10-08T03:27:00.311Z,43.1
2022-10-08T03:28:00.365Z,43.0
2022-10-08T03:29:00.426Z,43.0
2022-10-08T03:30:00.320Z,42.9
2022-10-08T03:31:00.305Z,43.0
2022-10-08T03:32:00.373Z,42.9
2022-10-08T03:33:00.381Z,42.9
2022-10-08T03:34:00.330Z,42.9
2022-10-08T03:35:00.458Z,42.9
2022-10-08T03:36:00.361Z,42.8
2022-10-08T03:37:00.364Z,42.8
2022-10-08T03:38:00.401Z,42.8
2022-10-08T03:39:00.375Z,42.7
2022-10-08T03:40:00.369Z,42.8
2022-10-08T03:41:00.408Z,42.8
2022-10-08T03:42:00.280Z,42.7
2022-10-08T03:43:00.371Z,42.7
2022-10-08T03:44:00.316Z,42.6
2022-10-08T03:45:00.291Z,42.7
2022-10-08T03:46:00.363Z,42.6
2022-10-08T03:47:00.528Z,42.5
2022-10-08T03:48:00.306Z,42.5
2022-10-08T03:49:00.281Z,42.5
2022-10-08T03:50:00.526Z,42.5
2022-10-08T03:51:00.370Z,42.5
2022-10-08T03:52:00.302Z,42.5
2022-10-08T03:53:00.424Z,42.4
2022-10-08T03:54:00.301Z,42.3
2022-10-08T03:55:00.423Z,42.1
2022-10-08T03:56:00.287Z,42.1
2022-10-08T03:57:00.309Z,42.0
2022-10-08T03:58:00.292Z,41.9
2022-10-08T03:59:00.455Z,41.9
2022-10-08T04:00:00.307Z,41.8
2022-10-08T04:01:00.403Z,41.6
2022-10-08T04:02:00.299Z,41.7
2022-10-08T04:03:00.359Z,41.7
2022-10-08T04:04:00.307Z,41.7
2022-10-08T04:05:00.420Z,41.6
2022-10-08T04:06:00.355Z,41.5
2022-10-08T04:07:00.298Z,41.4
2022-10-08T04:08:00.288Z,41.3
2022-10-08T04:09:00.290Z,41.3
2022-10-08T04:10:00.301Z,41.3
2022-10-08T04:11:00.424Z,41.2
2022-10-08T04:12:00.304Z,41.1
2022-10-08T04:13:00.298Z,40.9
2022-10-08T04:14:00.307Z,40.7
2022-10-08T04:15:00.304Z,40.6
2022-10-08T04:16:00.365Z,40.6
2022-10-08T04:17:00.449Z,40.5
2022-10-08T04:18:00.334Z,40.4
2022-10-08T04:19:00.336Z,40.4
2022-10-08T04:20:00.355Z,40.4
2022-10-08T04:21:00.360Z,40.4
2022-10-08T04:22:00.578Z,40.3
2022-10-08T04:23:00.512Z,40.2
2022-10-08T04:24:00.366Z,40.2
2022-10-08T04:25:00.282Z,40.2
2022-10-08T04:26:00.292Z,40.1
2022-10-08T04:27:00.273Z,40.0
2022-10-08T04:28:00.482Z,39.9
2022-10-08T04:29:00.477Z,39.8
2022-10-08T04:30:00.311Z,39.8
2022-10-08T04:31:00.370Z,39.7
2022-10-08T04:32:00.343Z,39.6
2022-10-08T04:33:00.382Z,39.5
2022-10-08T04:34:00.277Z,39.5
2022-10-08T04:35:00.405Z,39.4
2022-10-08T04:36:00.569Z,39.3
2022-10-08T04:37:00.264Z,39.2
2022-10-08T04:38:00.455Z,39.1
2022-10-08T04:39:00.260Z,38.9
2022-10-08T04:40:00.295Z,38.7
2022-10-08T04:41:00.483Z,38.4
2022-10-08T04:42:00.263Z,38.5
2022-10-08T04:43:00.269Z,38.3
2022-10-08T04:44:00.281Z,38.5
2022-10-08T04:45:00.300Z,38.5
2022-10-08T04:46:00.352Z,38.4
2022-10-08T04:47:00.452Z,38.4
2022-10-08T04:48:00.272Z,38.3
2022-10-08T04:49:00.306Z,38.5
2022-10-08T04:50:00.286Z,39.2
2022-10-08T04:51:00.278Z,39.2
2022-10-08T04:52:00.307Z,39.1
2022-10-08T04:53:00.556Z,39.1
2022-10-08T04:54:00.279Z,39.6
2022-10-08T04:55:00.301Z,39.8
2022-10-08T04:56:00.293Z,40.2
2022-10-08T04:57:00.307Z,40.5
2022-10-08T04:58:00.279Z,40.7
2022-10-08T04:59:00.423Z,40.4
2022-10-08T05:00:17.855Z,40.3
2022-10-08T05:01:00.301Z,40.3
2022-10-08T05:02:00.383Z,40.1
2022-10-08T05:03:00.378Z,38.8
2022-10-08T05:04:00.287Z,35.0
2022-10-08T05:05:00.452Z,32.7
2022-10-08T05:06:00.284Z,30.4
2022-10-08T05:07:00.293Z,28.9
2022-10-08T05:08:00.399Z,27.8
2022-10-08T05:09:00.365Z,26.7
2022-10-08T05:10:00.395Z,26.4
2022-10-08T05:11:00.550Z,26.0
2022-10-08T05:12:00.321Z,25.2
2022-10-08T05:13:00.352Z,24.7
2022-10-08T05:14:00.327Z,23.9
2022-10-08T05:15:00.381Z,22.2
2022-10-08T05:16:00.324Z,22.1
2022-10-08T05:17:00.465Z,22.5
2022-10-08T05:18:00.290Z,22.5
2022-10-08T05:19:00.292Z,22.2
2022-10-08T05:20:00.361Z,21.4
2022-10-08T05:21:00.365Z,20.8
2022-10-08T05:22:00.282Z,19.7
2022-10-08T05:23:00.450Z,20.7
2022-10-08T05:24:00.294Z,20.7
2022-10-08T05:25:00.300Z,21.4
2022-10-08T05:26:00.297Z,20.8
2022-10-08T05:27:00.287Z,20.3
2022-10-08T05:28:00.415Z,21.2
2022-10-08T05:29:00.461Z,21.8
2022-10-08T05:30:00.291Z,21.7
2022-10-08T05:31:00.377Z,22.2
2022-10-08T05:32:00.304Z,22.9
2022-10-08T05:33:00.295Z,22.0
2022-10-08T05:34:00.301Z,21.7
2022-10-08T05:35:00.413Z,22.7
2022-10-08T05:36:00.292Z,23.2
2022-10-08T05:37:00.305Z,22.2
2022-10-08T05:38:00.504Z,21.5
2022-10-08T05:39:00.299Z,22.6
2022-10-08T05:40:00.321Z,22.5
2022-10-08T05:41:00.464Z,23.4
2022-10-08T05:42:00.308Z,23.2
2022-10-08T05:43:00.297Z,23.0
2022-10-08T05:44:00.332Z,23.3
2022-10-08T05:45:00.291Z,21.7
2022-10-08T05:46:00.563Z,21.9
2022-10-08T05:47:00.443Z,22.9
2022-10-08T05:48:00.310Z,22.5
2022-10-08T05:49:00.304Z,21.3
2022-10-08T05:50:00.333Z,21.7
2022-10-08T05:51:00.366Z,21.9
2022-10-08T05:52:00.323Z,22.6
2022-10-08T05:53:00.453Z,22.1
2022-10-08T05:54:00.445Z,22.6
2022-10-08T05:55:00.298Z,23.1
2022-10-08T05:56:00.302Z,23.9
2022-10-08T05:57:00.367Z,23.2
2022-10-08T05:58:00.287Z,22.4
2022-10-08T05:59:00.389Z,21.3
2022-10-08T06:00:00.321Z,23.3
2022-10-08T06:01:00.289Z,22.9
2022-10-08T06:02:00.304Z,22.6
2022-10-08T06:03:00.407Z,23.4
2022-10-08T06:04:04.371Z,21.8
2022-10-08T06:05:00.540Z,20.6
2022-10-08T06:06:00.296Z,20.9
2022-10-08T06:07:00.297Z,21.5
2022-10-08T06:08:00.310Z,21.0
2022-10-08T06:09:00.381Z,21.6
2022-10-08T06:10:00.363Z,20.8
2022-10-08T06:11:00.452Z,20.5
2022-10-08T06:12:00.310Z,19.9
2022-10-08T06:13:00.300Z,20.8
2022-10-08T06:14:00.328Z,21.5
2022-10-08T06:15:00.311Z,22.4
2022-10-08T06:16:00.338Z,21.9
2022-10-08T06:17:00.426Z,20.8
2022-10-08T06:18:00.306Z,20.1
2022-10-08T06:19:00.290Z,19.8
2022-10-08T06:20:00.308Z,20.6
2022-10-08T06:21:00.304Z,21.1
2022-10-08T06:22:00.312Z,21.7
2022-10-08T06:23:00.500Z,21.0
2022-10-08T06:24:00.383Z,20.5
2022-10-08T06:25:00.328Z,19.2
2022-10-08T06:26:00.315Z,19.6
2022-10-08T06:27:00.307Z,19.1
2022-10-08T06:28:00.375Z,18.4
2022-10-08T06:29:00.446Z,19.4
2022-10-08T06:30:00.305Z,18.5
2022-10-08T06:31:00.364Z,18.4
2022-10-08T06:32:00.296Z,18.6
2022-10-08T06:33:00.312Z,18.3
2022-10-08T06:34:00.317Z,17.7
2022-10-08T06:35:00.456Z,17.9
2022-10-08T06:36:00.287Z,18.4
2022-10-08T06:37:00.290Z,19.5
2022-10-08T06:38:00.304Z,17.9
2022-10-08T06:39:00.439Z,17.7
2022-10-08T06:40:00.307Z,18.8
2022-10-08T06:41:00.392Z,18.9
2022-10-08T06:42:00.355Z,20.7
2022-10-08T06:43:00.357Z,21.4
2022-10-08T06:44:00.350Z,20.6
2022-10-08T06:45:02.473Z,19.0
2022-10-08T06:46:00.292Z,19.9
2022-10-08T06:47:00.486Z,20.0
2022-10-08T06:48:00.315Z,20.7
2022-10-08T06:49:00.289Z,20.8
2022-10-08T06:50:00.451Z,19.7
2022-10-08T06:51:00.352Z,20.6
2022-10-08T06:52:00.307Z,21.1
2022-10-08T06:53:00.527Z,21.3
2022-10-08T06:54:05.917Z,21.6
2022-10-08T06:55:00.290Z,21.9
2022-10-08T06:56:00.318Z,21.7
2022-10-08T06:57:00.300Z,21.3
2022-10-08T06:58:00.311Z,21.0
2022-10-08T06:59:00.453Z,20.8
2022-10-08T07:00:00.386Z,21.4
2022-10-08T07:01:00.369Z,22.2
2022-10-08T07:02:00.390Z,21.0
2022-10-08T07:03:00.322Z,21.7
2022-10-08T07:04:00.282Z,22.5
2022-10-08T07:05:00.507Z,21.8
2022-10-08T07:06:00.327Z,21.8
2022-10-08T07:07:00.304Z,22.5
2022-10-08T07:08:00.299Z,21.7
2022-10-08T07:09:00.428Z,20.1
2022-10-08T07:10:00.389Z,19.7
2022-10-08T07:11:00.469Z,20.9
2022-10-08T07:12:00.304Z,20.8
2022-10-08T07:13:00.322Z,20.5
2022-10-08T07:14:00.308Z,18.2
2022-10-08T07:15:00.308Z,20.3
2022-10-08T07:16:00.365Z,21.6
2022-10-08T07:17:00.432Z,22.2
2022-10-08T07:18:00.296Z,22.0
2022-10-08T07:19:00.309Z,22.8
2022-10-08T07:20:00.503Z,22.9
2022-10-08T07:21:00.399Z,22.7
2022-10-08T07:22:01.422Z,22.5
2022-10-08T07:23:00.439Z,22.2
2022-10-08T07:24:00.466Z,23.1
2022-10-08T07:25:00.343Z,21.3
2022-10-08T07:26:00.283Z,20.7
2022-10-08T07:27:00.301Z,20.7
2022-10-08T07:28:00.421Z,17.9
2022-10-08T07:29:00.468Z,21.0
2022-10-08T07:30:00.319Z,20.8
2022-10-08T07:31:00.288Z,20.3
2022-10-08T07:32:00.445Z,19.4
2022-10-08T07:33:00.291Z,20.5
2022-10-08T07:34:00.324Z,20.0
2022-10-08T07:35:00.441Z,19.8
2022-10-08T07:36:00.365Z,19.6
2022-10-08T07:37:00.410Z,18.6
2022-10-08T07:38:00.277Z,18.4
2022-10-08T07:39:00.494Z,16.5
2022-10-08T07:40:00.297Z,15.7
2022-10-08T07:41:00.450Z,14.9
2022-10-08T07:42:00.406Z,15.0
2022-10-08T07:43:00.404Z,14.5
2022-10-08T07:44:00.289Z,14.5
2022-10-08T07:45:00.285Z,14.1
2022-10-08T07:46:00.397Z,13.9
2022-10-08T07:47:00.894Z,13.0
2022-10-08T07:48:00.328Z,12.3
2022-10-08T07:49:00.297Z,11.9
2022-10-08T07:50:00.285Z,13.0
2022-10-08T07:51:00.303Z,12.7
2022-10-08T07:52:00.317Z,12.2
2022-10-08T07:53:00.407Z,12.2
2022-10-08T07:54:02.727Z,11.4
2022-10-08T07:55:00.292Z,11.2
2022-10-08T07:56:00.291Z,11.6
2022-10-08T07:57:00.291Z,11.6
2022-10-08T07:58:00.307Z,11.6
2022-10-08T07:59:00.417Z,12.3
2022-10-08T08:00:00.299Z,12.2
2022-10-08T08:01:00.360Z,12.8
2022-10-08T08:02:00.341Z,13.4
2022-10-08T08:03:00.308Z,13.6
2022-10-08T08:04:00.311Z,13.1
2022-10-08T08:05:00.434Z,13.9
2022-10-08T08:06:00.332Z,13.2
2022-10-08T08:07:00.306Z,14.9
2022-10-08T08:08:00.304Z,16.3
2022-10-08T08:09:00.335Z,15.0
2022-10-08T08:10:00.275Z,16.7
2022-10-08T08:11:00.478Z,16.6
2022-10-08T08:12:00.293Z,17.1
2022-10-08T08:13:00.279Z,16.7
2022-10-08T08:14:00.296Z,17.8
2022-10-08T08:15:00.285Z,19.2
2022-10-08T08:16:00.358Z,19.2
2022-10-08T08:17:00.539Z,18.7
2022-10-08T08:18:00.291Z,16.8
2022-10-08T08:19:00.295Z,18.8
2022-10-08T08:20:00.310Z,20.0
2022-10-08T08:21:00.293Z,20.6
2022-10-08T08:22:00.393Z,20.7
2022-10-08T08:23:00.457Z,20.0
2022-10-08T08:24:00.441Z,19.8
2022-10-08T08:25:00.374Z,19.9
2022-10-08T08:26:00.295Z,20.4
2022-10-08T08:27:00.329Z,20.7
2022-10-08T08:28:00.392Z,21.1
2022-10-08T08:29:00.641Z,21.3
2022-10-08T08:30:00.314Z,21.3
2022-10-08T08:31:00.309Z,21.8
2022-10-08T08:32:00.411Z,21.0
2022-10-08T08:33:00.364Z,21.6
2022-10-08T08:34:00.447Z,21.8
2022-10-08T08:35:00.630Z,22.1
2022-10-08T08:36:00.346Z,22.5
2022-10-08T08:37:00.308Z,22.1
2022-10-08T08:38:00.284Z,21.1
2022-10-08T08:39:00.481Z,22.1
2022-10-08T08:40:00.290Z,21.9
2022-10-08T08:41:00.428Z,21.8
2022-10-08T08:42:00.298Z,21.8
2022-10-08T08:43:00.305Z,20.0
2022-10-08T08:44:00.287Z,21.3
2022-10-08T08:45:00.315Z,22.1
2022-10-08T08:46:00.436Z,21.1
2022-10-08T08:47:00.435Z,22.2
2022-10-08T08:48:00.303Z,22.4
2022-10-08T08:49:00.308Z,21.6
2022-10-08T08:50:00.338Z,21.4
2022-10-08T08:51:00.295Z,21.0
2022-10-08T08:52:00.313Z,21.6
2022-10-08T08:53:00.513Z,22.0
2022-10-08T08:54:00.425Z,22.1
2022-10-08T08:55:00.303Z,22.4
2022-10-08T08:56:00.320Z,22.6
2022-10-08T08:57:00.310Z,21.3
2022-10-08T08:58:00.305Z,21.0
2022-10-08T08:59:00.440Z,20.6
2022-10-08T09:00:00.290Z,21.6
2022-10-08T09:01:00.364Z,22.1
2022-10-08T09:02:00.322Z,21.9
2022-10-08T09:03:00.301Z,22.6
2022-10-08T09:04:00.347Z,22.7
2022-10-08T09:05:00.613Z,22.2
2022-10-08T09:06:00.343Z,22.1
2022-10-08T09:07:00.298Z,22.4
2022-10-08T09:08:00.358Z,22.7
2022-10-08T09:09:00.601Z,23.0
2022-10-08T09:10:00.311Z,22.9
2022-10-08T09:11:00.589Z,21.2
2022-10-08T09:12:00.278Z,21.6
2022-10-08T09:13:00.452Z,22.1
2022-10-08T09:14:00.300Z,22.4
2022-10-08T09:15:00.391Z,22.5
2022-10-08T09:16:00.346Z,22.9
2022-10-08T09:17:00.449Z,22.3
2022-10-08T09:18:00.296Z,22.2
2022-10-08T09:19:00.347Z,22.0
2022-10-08T09:20:00.400Z,22.5
2022-10-08T09:21:00.390Z,22.5
2022-10-08T09:22:00.390Z,21.5
2022-10-08T09:23:00.531Z,22.0
2022-10-08T09:24:00.369Z,22.3
2022-10-08T09:25:00.288Z,22.2
2022-10-08T09:26:00.282Z,21.9
2022-10-08T09:27:00.272Z,21.7
2022-10-08T09:28:00.353Z,22.0
2022-10-08T09:29:00.509Z,22.2
2022-10-08T09:30:00.304Z,22.2
2022-10-08T09:31:00.392Z,22.7
2022-10-08T09:32:00.305Z,23.0
2022-10-08T09:33:00.289Z,22.4
2022-10-08T09:34:00.316Z,20.8
2022-10-08T09:35:00.558Z,19.0
2022-10-08T09:36:00.499Z,15.9
2022-10-08T09:37:00.379Z,14.8
2022-10-08T09:38:05.399Z,14.4
2022-10-08T09:39:00.440Z,13.7
2022-10-08T09:40:00.273Z,13.5
2022-10-08T09:41:00.543Z,12.5
2022-10-08T09:42:00.299Z,12.1
2022-10-08T09:43:00.366Z,11.3
2022-10-08T09:44:00.538Z,10.7
2022-10-08T09:45:00.301Z,10.4
2022-10-08T09:46:00.406Z,10.3
2022-10-08T09:47:00.453Z,10.1
2022-10-08T09:48:00.310Z,9.5
2022-10-08T09:49:00.358Z,9.7
2022-10-08T09:50:00.324Z,9.6
2022-10-08T09:51:00.295Z,9.4
2022-10-08T09:52:00.349Z,9.3
2022-10-08T09:53:00.527Z,9.4
2022-10-08T09:54:00.492Z,9.4
2022-10-08T09:55:00.501Z,9.4
2022-10-08T09:56:00.431Z,9.2
2022-10-08T09:57:00.321Z,8.7
2022-10-08T09:58:00.397Z,8.9
2022-10-08T09:59:00.570Z,8.9
2022-10-08T10:00:00.409Z,8.7
2022-10-08T10:01:00.399Z,8.6
2022-10-08T10:02:00.278Z,9.6
2022-10-08T10:03:00.328Z,9.7
2022-10-08T10:04:00.436Z,9.4
2022-10-08T10:05:00.432Z,9.3
2022-10-08T10:06:00.358Z,9.3
2022-10-08T10:07:00.293Z,9.2
2022-10-08T10:08:00.307Z,9.5
2022-10-08T10:09:00.480Z,9.9
2022-10-08T10:10:00.364Z,10.0
2022-10-08T10:11:00.908Z,10.4
2022-10-08T10:12:00.367Z,9.5
2022-10-08T10:13:00.382Z,9.6
2022-10-08T10:14:00.331Z,9.8
2022-10-08T10:15:00.375Z,11.7
2022-10-08T10:16:00.335Z,13.0
2022-10-08T10:17:00.519Z,12.9
2022-10-08T10:18:00.303Z,13.1
2022-10-08T10:19:00.306Z,14.1
2022-10-08T10:20:00.362Z,14.9
2022-10-08T10:21:00.334Z,16.0
2022-10-08T10:22:00.474Z,16.6
2022-10-08T10:23:00.528Z,17.3
2022-10-08T10:24:00.309Z,17.7
2022-10-08T10:25:00.391Z,17.3
2022-10-08T10:26:05.504Z,17.1
2022-10-08T10:27:00.362Z,15.8
2022-10-08T10:28:00.391Z,15.3
2022-10-08T10:29:00.523Z,16.2
2022-10-08T10:30:00.303Z,16.7
2022-10-08T10:31:00.368Z,17.2
2022-10-08T10:32:00.329Z,16.0
2022-10-08T10:33:00.451Z,15.4
2022-10-08T10:34:00.278Z,15.7
2022-10-08T10:35:00.440Z,15.4
2022-10-08T10:36:00.281Z,15.2
2022-10-08T10:37:00.321Z,14.8
2022-10-08T10:38:00.342Z,15.1
2022-10-08T10:39:00.327Z,16.3
2022-10-08T10:40:00.339Z,16.4
2022-10-08T10:41:00.559Z,16.9
2022-10-08T10:42:00.276Z,18.1
2022-10-08T10:43:00.315Z,18.6
2022-10-08T10:44:00.374Z,18.7
2022-10-08T10:45:00.381Z,18.8
2022-10-08T10:46:00.338Z,18.9
2022-10-08T10:47:00.494Z,19.4
2022-10-08T10:48:00.271Z,19.2
2022-10-08T10:49:00.295Z,20.0
2022-10-08T10:50:00.329Z,20.7
2022-10-08T10:51:00.278Z,21.1
2022-10-08T10:52:00.365Z,20.5
2022-10-08T10:53:00.784Z,19.9
2022-10-08T10:54:00.280Z,19.8
2022-10-08T10:55:00.289Z,20.0
2022-10-08T10:56:00.357Z,19.9
2022-10-08T10:57:00.492Z,19.7
2022-10-08T10:58:00.291Z,19.2
2022-10-08T10:59:00.405Z,18.5
2022-10-08T11:00:00.252Z,18.2
2022-10-08T11:01:00.256Z,17.9
2022-10-08T11:02:00.345Z,17.9
2022-10-08T11:03:00.351Z,17.8
2022-10-08T11:04:00.271Z,18.1
2022-10-08T11:05:01.947Z,18.7
2022-10-08T11:06:00.265Z,18.4
2022-10-08T11:07:00.324Z,18.2
2022-10-08T11:08:00.279Z,18.3
2022-10-08T11:09:00.292Z,18.2
2022-10-08T11:10:00.327Z,18.7
2022-10-08T11:11:00.420Z,18.9
2022-10-08T11:12:00.459Z,18.8
2022-10-08T11:13:00.439Z,18.7
2022-10-08T11:14:00.503Z,18.7
2022-10-08T11:15:00.334Z,18.9
2022-10-08T11:16:00.397Z,19.1
2022-10-08T11:17:00.493Z,19.1
2022-10-08T11:18:00.338Z,18.9
2022-10-08T11:19:00.343Z,18.8
2022-10-08T11:20:00.273Z,18.9
2022-10-08T11:21:00.373Z,19.0
2022-10-08T11:22:00.252Z,19.3
2022-10-08T11:23:00.468Z,19.5
2022-10-08T11:24:00.343Z,20.0
2022-10-08T11:25:00.339Z,20.9
2022-10-08T11:26:21.528Z,21.4
2022-10-08T11:27:00.290Z,22.0
2022-10-08T11:28:00.424Z,21.9
2022-10-08T11:29:00.507Z,21.8
2022-10-08T11:30:00.314Z,21.8
2022-10-08T11:31:00.319Z,22.0
2022-10-08T11:32:00.313Z,21.9
2022-10-08T11:33:00.306Z,22.0
2022-10-08T11:34:00.295Z,22.0
2022-10-08T11:35:00.434Z,21.9
2022-10-08T11:36:00.397Z,22.1
2022-10-08T11:37:00.307Z,22.2
2022-10-08T11:38:00.270Z,22.1
2022-10-08T11:39:00.339Z,22.0
2022-10-08T11:40:00.333Z,22.0
2022-10-08T11:41:00.504Z,22.2
2022-10-08T11:42:00.298Z,22.2
2022-10-08T11:43:00.522Z,22.4
2022-10-08T11:44:00.321Z,22.5
2022-10-08T11:45:00.284Z,22.5
2022-10-08T11:46:00.358Z,22.5
2022-10-08T11:47:00.636Z,22.7
2022-10-08T11:48:00.322Z,23.1
2022-10-08T11:49:00.300Z,23.1
2022-10-08T11:50:00.332Z,23.2
2022-10-08T11:51:00.327Z,23.3
2022-10-08T11:52:00.320Z,23.4
2022-10-08T11:53:00.516Z,23.4
2022-10-08T11:54:00.319Z,23.4
2022-10-08T11:55:00.287Z,23.4
2022-10-08T11:56:00.383Z,23.3
2022-10-08T11:57:00.312Z,23.2
2022-10-08T11:58:08.741Z,23.3
2022-10-08T11:59:00.473Z,23.4
2022-10-08T12:00:04.232Z,23.5
2022-10-08T12:01:00.292Z,23.6
2022-10-08T12:02:00.310Z,23.7
2022-10-08T12:03:00.528Z,23.9
2022-10-08T12:04:00.316Z,24.0
2022-10-08T12:05:00.451Z,24.1
2022-10-08T12:06:00.320Z,24.1
2022-10-08T12:07:00.365Z,24.0
2022-10-08T12:08:00.292Z,24.2
2022-10-08T12:09:00.404Z,24.2
2022-10-08T12:10:00.343Z,24.2
2022-10-08T12:11:00.463Z,24.5
2022-10-08T12:12:00.284Z,24.4
2022-10-08T12:13:00.431Z,24.4
2022-10-08T12:14:00.321Z,24.6
2022-10-08T12:15:00.342Z,24.4
2022-10-08T12:16:00.400Z,24.4
2022-10-08T12:17:00.424Z,24.6
2022-10-08T12:18:00.322Z,24.5
2022-10-08T12:19:00.295Z,24.4
2022-10-08T12:20:00.390Z,24.5
2022-10-08T12:21:00.330Z,24.5
2022-10-08T12:22:00.332Z,24.5
2022-10-08T12:23:00.470Z,24.5
2022-10-08T12:24:00.408Z,24.5
2022-10-08T12:25:00.371Z,24.6
2022-10-08T12:26:00.350Z,24.7
2022-10-08T12:27:00.365Z,24.8
2022-10-08T12:28:00.565Z,24.9
2022-10-08T12:29:00.378Z,25.2
2022-10-08T12:30:00.492Z,25.2
2022-10-08T12:31:00.458Z,25.2
2022-10-08T12:32:00.417Z,25.4
2022-10-08T12:33:00.372Z,25.7
2022-10-08T12:34:00.309Z,25.9
2022-10-08T12:35:00.460Z,26.0
2022-10-08T12:36:00.374Z,25.9
2022-10-08T12:37:01.943Z,26.0
2022-10-08T12:38:00.432Z,25.9
2022-10-08T12:39:00.334Z,25.8
2022-10-08T12:40:00.543Z,26.1
2022-10-08T12:41:00.597Z,26.1
2022-10-08T12:42:00.326Z,26.0
2022-10-08T12:43:00.594Z,26.0
2022-10-08T12:44:00.572Z,26.0
2022-10-08T12:45:00.498Z,26.1
2022-10-08T12:46:00.350Z,26.2
2022-10-08T12:47:00.695Z,26.2
2022-10-08T12:48:00.319Z,26.3
2022-10-08T12:49:00.351Z,26.3
2022-10-08T12:50:00.278Z,26.2
2022-10-08T12:51:00.367Z,26.0
2022-10-08T12:52:00.330Z,26.0
2022-10-08T12:53:00.596Z,26.0
2022-10-08T12:54:00.343Z,26.0
2022-10-08T12:55:00.319Z,25.9
2022-10-08T12:56:00.280Z,26.1
2022-10-08T12:57:00.361Z,26.3
2022-10-08T12:58:00.306Z,26.4
2022-10-08T12:59:00.666Z,26.5
2022-10-08T13:00:00.417Z,26.5
2022-10-08T13:01:00.373Z,26.6
2022-10-08T13:02:00.377Z,26.4
2022-10-08T13:03:00.301Z,26.5
2022-10-08T13:04:00.517Z,26.5
2022-10-08T13:05:00.496Z,26.6
2022-10-08T13:06:00.376Z,26.6
2022-10-08T13:07:00.281Z,26.7
2022-10-08T13:08:00.297Z,26.8
2022-10-08T13:09:00.401Z,27.0
2022-10-08T13:10:00.426Z,27.1
2022-10-08T13:11:00.584Z,27.1
2022-10-08T13:12:03.562Z,27.1
2022-10-08T13:13:00.331Z,27.1
2022-10-08T13:14:00.546Z,27.3
2022-10-08T13:15:00.438Z,27.4
2022-10-08T13:16:00.395Z,27.5
2022-10-08T13:17:00.508Z,27.5
2022-10-08T13:18:00.309Z,27.5
2022-10-08T13:19:00.318Z,27.6